Time;durP1;ratioP1;P1;durP2;ratioP2;P2;SDS_P1;SDS_P2;PMS_P1;PMS_P2;Temp;Humidity;BMP_temperature;BMP_pressure;BME280_temperature;BME280_humidity;BME280_pressure;Samples;Min_cycle;Max_cycle;Signal;HPM_P1;HPM_P2
2023/05/11 00:01:48;;;;;;;0.40;0.20;;;13.10;99.90;;;;;;5115834;28;20424;-62
2023/05/11 00:04:15;;;;;;;1.40;0.20;;;13.10;99.90;;;;;;5113567;28;20543;-63
2023/05/11 00:06:42;;;;;;;0.40;0.20;;;13.10;99.90;;;;;;5115777;28;21029;-63
2023/05/11 00:09:11;;;;;;;0.60;0.20;;;13.10;99.90;;;;;;5114125;28;20428;-62
2023/05/11 00:11:38;;;;;;;0.40;0.20;;;13.10;99.90;;;;;;5115118;28;20408;-63
2023/05/11 00:14:05;;;;;;;0.50;0.20;;;13.10;99.90;;;;;;5113061;28;20572;-63
2023/05/11 00:16:32;;;;;;;0.40;0.20;;;13.10;99.90;;;;;;5113539;28;20497;-63
2023/05/11 00:18:59;;;;;;;0.40;0.20;;;13.10;99.90;;;;;;5113535;28;20428;-62
2023/05/11 00:21:26;;;;;;;0.50;0.20;;;13.10;99.90;;;;;;5111385;28;20432;-62
2023/05/11 00:23:53;;;;;;;1.10;0.30;;;13.00;99.90;;;;;;5114027;28;20506;-63
2023/05/11 00:26:25;;;;;;;0.60;0.20;;;12.90;99.90;;;;;;5113383;28;20427;-63
2023/05/11 00:28:52;;;;;;;0.50;0.20;;;12.90;99.90;;;;;;5113929;28;20415;-63
2023/05/11 00:31:19;;;;;;;0.50;0.30;;;12.90;99.90;;;;;;5104054;28;20460;-63
2023/05/11 00:33:46;;;;;;;0.50;0.30;;;12.90;99.90;;;;;;5111579;28;20433;-63
2023/05/11 00:36:13;;;;;;;0.50;0.20;;;12.90;99.90;;;;;;5114527;28;20538;-62
2023/05/11 00:38:40;;;;;;;1.60;0.20;;;12.90;99.90;;;;;;5114252;28;20420;-63
2023/05/11 00:41:08;;;;;;;0.40;0.20;;;13.00;99.90;;;;;;5114117;28;20481;-63
2023/05/11 00:43:36;;;;;;;0.50;0.30;;;13.00;99.90;;;;;;5114216;28;20432;-61
2023/05/11 00:46:04;;;;;;;0.40;0.20;;;13.00;99.90;;;;;;5115575;28;20857;-62
2023/05/11 00:48:31;;;;;;;0.60;0.20;;;13.00;99.90;;;;;;5114460;28;20424;-62
2023/05/11 00:50:59;;;;;;;0.80;0.20;;;13.00;99.90;;;;;;5113548;28;20863;-62
2023/05/11 00:53:26;;;;;;;0.60;0.20;;;13.10;99.90;;;;;;5114563;28;20510;-62
2023/05/11 00:55:54;;;;;;;0.40;0.20;;;13.00;99.90;;;;;;5113869;28;20474;-63
2023/05/11 00:58:21;;;;;;;0.70;0.20;;;12.90;99.90;;;;;;5114149;28;20701;-62
2023/05/11 01:00:49;;;;;;;0.60;0.20;;;12.90;99.90;;;;;;5111835;28;20440;-62
2023/05/11 01:03:17;;;;;;;0.50;0.20;;;12.90;99.90;;;;;;5111466;28;20436;-63
2023/05/11 01:05:49;;;;;;;0.40;0.20;;;12.90;99.90;;;;;;5114716;28;20419;-65
2023/05/11 01:08:19;;;;;;;0.30;0.20;;;12.90;99.90;;;;;;5113503;28;20428;-63
2023/05/11 01:10:54;;;;;;;0.40;0.20;;;12.90;99.90;;;;;;5113149;28;20440;-63
2023/05/11 01:13:27;;;;;;;0.30;0.20;;;12.80;99.90;;;;;;5113475;28;20500;-63
2023/05/11 01:15:56;;;;;;;0.40;0.20;;;12.80;99.90;;;;;;5114222;28;20431;-62
2023/05/11 01:18:26;;;;;;;0.60;0.20;;;12.80;99.90;;;;;;5113870;28;20434;-62
2023/05/11 01:20:58;;;;;;;0.30;0.20;;;12.80;99.90;;;;;;5112548;28;20440;-63
2023/05/11 01:24:00;;;;;;;0.30;0.20;;;13.00;99.90;;;;;;5114440;28;20477;-62
2023/05/11 01:26:37;;;;;;;0.40;0.20;;;13.00;99.90;;;;;;5107966;28;20428;-61
2023/05/11 01:29:35;;;;;;;0.70;0.20;;;13.00;99.90;;;;;;5117112;28;20440;-62
2023/05/11 01:32:10;;;;;;;0.40;0.20;;;12.90;99.90;;;;;;5117777;28;20843;-62
2023/05/11 01:34:41;;;;;;;0.40;0.20;;;13.00;99.90;;;;;;5117683;28;20893;-62
2023/05/11 01:37:12;;;;;;;1.30;0.20;;;13.20;99.90;;;;;;5115789;28;20416;-62
2023/05/11 01:39:47;;;;;;;0.55;0.20;;;13.30;99.90;;;;;;5097651;28;20479;-62
2023/05/11 01:42:15;;;;;;;0.30;0.20;;;13.20;99.90;;;;;;5097950;28;20409;-62
2023/05/11 01:44:44;;;;;;;0.40;0.20;;;13.30;99.90;;;;;;5097185;28;20486;-63
2023/05/11 01:47:14;;;;;;;0.30;0.20;;;13.50;99.90;;;;;;5105255;28;20427;-61
2023/05/11 01:49:44;;;;;;;0.40;0.20;;;13.60;99.90;;;;;;5117421;28;20717;-63
2023/05/11 01:52:12;;;;;;;0.40;0.20;;;13.70;99.90;;;;;;5116607;28;20416;-63
2023/05/11 01:54:41;;;;;;;0.40;0.20;;;13.70;99.90;;;;;;5117014;28;20439;-63
2023/05/11 01:57:12;;;;;;;0.40;0.17;;;13.60;99.90;;;;;;5115124;28;20435;-63
2023/05/11 01:59:40;;;;;;;0.40;0.20;;;13.60;99.90;;;;;;5116585;28;20674;-63
2023/05/11 02:02:09;;;;;;;0.40;0.20;;;13.40;99.90;;;;;;5117238;28;20427;-63
2023/05/11 02:04:40;;;;;;;0.30;0.20;;;13.30;99.90;;;;;;5116028;28;20520;-63
2023/05/11 02:07:08;;;;;;;0.40;0.20;;;13.30;99.90;;;;;;5115390;28;20484;-63
2023/05/11 02:09:36;;;;;;;0.70;0.20;;;13.30;99.90;;;;;;5116774;28;20485;-63
2023/05/11 02:12:05;;;;;;;0.40;0.20;;;13.30;99.90;;;;;;5116935;28;20832;-63
2023/05/11 02:14:35;;;;;;;0.32;0.20;;;13.20;99.90;;;;;;5114556;28;20484;-63
2023/05/11 02:17:05;;;;;;;0.70;0.20;;;13.10;99.90;;;;;;5117164;28;20474;-63
2023/05/11 02:19:35;;;;;;;0.40;0.20;;;13.10;99.90;;;;;;5117162;28;20430;-63
2023/05/11 02:22:05;;;;;;;0.40;0.20;;;13.10;99.90;;;;;;5115970;28;20511;-64
2023/05/11 02:24:33;;;;;;;0.40;0.20;;;13.00;99.90;;;;;;5115243;28;20470;-63
2023/05/11 02:27:00;;;;;;;0.80;0.20;;;12.90;99.90;;;;;;5117609;28;20432;-64
2023/05/11 02:29:27;;;;;;;0.40;0.20;;;12.80;99.90;;;;;;5116954;28;20439;-63
2023/05/11 02:32:01;;;;;;;0.50;0.20;;;12.80;99.90;;;;;;5114839;28;20432;-63
2023/05/11 02:34:32;;;;;;;0.40;0.20;;;12.90;99.90;;;;;;5116213;28;20469;-63
2023/05/11 02:37:06;;;;;;;0.40;0.20;;;13.00;99.90;;;;;;5117264;28;20416;-64
2023/05/11 02:39:35;;;;;;;0.70;0.20;;;13.20;99.90;;;;;;5115757;28;20428;-63
2023/05/11 02:42:09;;;;;;;0.80;0.20;;;13.20;99.90;;;;;;5115444;28;20432;-64
2023/05/11 02:44:38;;;;;;;0.50;0.20;;;13.10;99.90;;;;;;5116533;28;20496;-63
2023/05/11 02:47:08;;;;;;;0.40;0.20;;;12.90;99.90;;;;;;5115926;28;20478;-61
2023/05/11 02:49:37;;;;;;;0.70;0.20;;;12.70;99.90;;;;;;5115807;28;20424;-64
2023/05/11 02:52:08;;;;;;;0.40;0.20;;;12.70;99.90;;;;;;5115515;28;20462;-63
2023/05/11 02:54:37;;;;;;;0.88;0.20;;;12.70;99.90;;;;;;5116814;28;20428;-61
2023/05/11 02:57:04;;;;;;;0.40;0.20;;;12.70;99.90;;;;;;5116436;28;20461;-61
2023/05/11 02:59:32;;;;;;;0.40;0.20;;;12.80;99.90;;;;;;5115564;28;20493;-62
2023/05/11 03:02:00;;;;;;;0.40;0.20;;;12.80;99.90;;;;;;5114197;28;20867;-62
2023/05/11 03:04:28;;;;;;;0.50;0.20;;;12.70;99.90;;;;;;5116094;28;20428;-62
2023/05/11 03:06:55;;;;;;;1.10;0.20;;;12.80;99.90;;;;;;5115640;28;20855;-63
2023/05/11 03:09:24;;;;;;;0.40;0.20;;;12.80;99.90;;;;;;5111522;28;20443;-63
2023/05/11 03:11:51;;;;;;;0.88;0.20;;;12.80;99.90;;;;;;5117071;28;20420;-63
2023/05/11 03:14:18;;;;;;;0.50;0.20;;;12.80;99.90;;;;;;5116172;28;20506;-63
2023/05/11 03:16:45;;;;;;;0.40;0.20;;;12.80;99.90;;;;;;5116909;28;20424;-63
2023/05/11 03:19:14;;;;;;;0.30;0.20;;;12.80;99.90;;;;;;5113343;28;20431;-63
2023/05/11 03:21:41;;;;;;;0.40;0.20;;;12.80;99.90;;;;;;5113854;28;20420;-63
2023/05/11 03:24:09;;;;;;;0.80;0.20;;;12.90;99.90;;;;;;5114202;28;20432;-62
2023/05/11 03:26:37;;;;;;;0.60;0.20;;;13.00;99.90;;;;;;5109807;28;20560;-62
2023/05/11 03:29:07;;;;;;;0.60;0.20;;;13.00;99.90;;;;;;5095730;28;20494;-63
2023/05/11 03:31:34;;;;;;;0.80;0.20;;;13.10;99.90;;;;;;5093750;28;20418;-62
2023/05/11 03:34:01;;;;;;;0.40;0.20;;;13.10;99.90;;;;;;5097951;28;20839;-63
2023/05/11 03:36:29;;;;;;;1.30;0.30;;;13.20;99.90;;;;;;5115589;28;20781;-63
2023/05/11 03:38:57;;;;;;;0.40;0.20;;;13.20;99.90;;;;;;5114343;28;20416;-63
2023/05/11 03:41:26;;;;;;;0.30;0.20;;;13.20;99.90;;;;;;5114271;28;20424;-63
2023/05/11 03:43:56;;;;;;;0.90;0.27;;;13.20;99.90;;;;;;5113249;28;20790;-62
2023/05/11 03:46:24;;;;;;;0.40;0.20;;;13.10;99.90;;;;;;5115019;28;20773;-63
2023/05/11 03:48:52;;;;;;;0.80;0.30;;;13.00;99.90;;;;;;5114403;28;20428;-63
2023/05/11 03:51:20;;;;;;;0.63;0.30;;;12.90;99.90;;;;;;5115028;28;20424;-64
2023/05/11 03:53:47;;;;;;;0.45;0.20;;;12.80;99.90;;;;;;5113794;28;20435;-62
2023/05/11 03:56:15;;;;;;;0.60;0.30;;;12.80;99.90;;;;;;5116013;28;20416;-63
2023/05/11 03:58:42;;;;;;;0.70;0.30;;;13.00;99.90;;;;;;5113882;28;20413;-63
2023/05/11 04:01:13;;;;;;;0.40;0.20;;;13.00;99.90;;;;;;5107018;28;20744;-63
2023/05/11 04:03:48;;;;;;;0.40;0.20;;;13.10;99.90;;;;;;5114273;28;20416;-63
2023/05/11 04:06:16;;;;;;;0.35;0.20;;;13.10;99.90;;;;;;5115528;28;20723;-63
2023/05/11 04:08:43;;;;;;;0.40;0.20;;;13.10;99.90;;;;;;5112771;28;20432;-63
2023/05/11 04:11:11;;;;;;;0.40;0.20;;;13.20;99.90;;;;;;5112847;28;20432;-62
2023/05/11 04:13:38;;;;;;;0.80;0.20;;;13.30;99.90;;;;;;5115768;28;20841;-63
2023/05/11 04:16:05;;;;;;;0.50;0.30;;;13.30;99.90;;;;;;5114648;28;20431;-63
2023/05/11 04:18:33;;;;;;;0.40;0.20;;;13.30;99.90;;;;;;5113788;28;20924;-63
2023/05/11 04:21:00;;;;;;;1.30;0.30;;;13.10;99.90;;;;;;5115563;28;20436;-64
2023/05/11 04:23:27;;;;;;;1.05;0.30;;;13.00;99.90;;;;;;5113612;28;20420;-63
2023/05/11 04:25:55;;;;;;;0.50;0.30;;;13.10;99.90;;;;;;5113445;28;20481;-63
2023/05/11 04:28:26;;;;;;;0.40;0.20;;;13.30;99.90;;;;;;5108537;28;20424;-62
2023/05/11 04:30:54;;;;;;;0.40;0.20;;;13.40;99.90;;;;;;5112192;28;20428;-62
2023/05/11 04:33:21;;;;;;;0.50;0.30;;;13.40;99.90;;;;;;5112513;28;20511;-62
2023/05/11 04:35:52;;;;;;;0.40;0.20;;;13.30;99.90;;;;;;5108981;28;20436;-61
2023/05/11 04:38:19;;;;;;;0.50;0.20;;;13.10;99.90;;;;;;5112691;28;20833;-62
2023/05/11 04:40:46;;;;;;;0.70;0.30;;;12.90;99.90;;;;;;5112969;28;20423;-63
2023/05/11 04:43:14;;;;;;;0.60;0.20;;;12.60;99.90;;;;;;5110602;28;20464;-63
2023/05/11 04:45:41;;;;;;;0.50;0.30;;;12.60;99.90;;;;;;5109589;28;20504;-62
2023/05/11 04:48:08;;;;;;;0.65;0.40;;;12.70;99.90;;;;;;5112612;28;20784;-62
2023/05/11 04:50:36;;;;;;;0.50;0.30;;;12.90;99.90;;;;;;5112361;28;20416;-61
2023/05/11 04:53:05;;;;;;;0.65;0.30;;;13.10;99.90;;;;;;5111811;28;20579;-62
2023/05/11 04:55:32;;;;;;;0.70;0.30;;;13.10;99.90;;;;;;5112196;28;20436;-62
2023/05/11 04:57:59;;;;;;;0.50;0.40;;;13.10;99.90;;;;;;5112388;28;20411;-62
2023/05/11 05:00:26;;;;;;;0.40;0.30;;;13.10;99.90;;;;;;5110509;28;20428;-62
2023/05/11 05:02:52;;;;;;;0.90;0.30;;;12.90;99.90;;;;;;5114117;28;20777;-62
2023/05/11 05:05:20;;;;;;;0.87;0.40;;;12.80;99.90;;;;;;5113675;28;20420;-62
2023/05/11 05:07:47;;;;;;;0.90;0.40;;;12.70;99.90;;;;;;5111154;27;20428;-62
2023/05/11 05:10:15;;;;;;;0.50;0.30;;;12.90;99.90;;;;;;5114446;28;20435;-62
2023/05/11 05:12:42;;;;;;;0.50;0.20;;;13.00;99.90;;;;;;5116693;28;20420;-62
2023/05/11 05:15:10;;;;;;;0.80;0.30;;;13.10;99.90;;;;;;5115564;28;20485;-62
2023/05/11 05:17:37;;;;;;;1.10;0.30;;;13.20;99.90;;;;;;5112094;28;20424;-59
2023/05/11 05:20:05;;;;;;;1.10;0.30;;;13.30;99.90;;;;;;5115672;28;20505;-60
2023/05/11 05:22:33;;;;;;;0.50;0.25;;;13.40;99.90;;;;;;5114745;28;20442;-60
2023/05/11 05:25:00;;;;;;;0.50;0.20;;;13.40;99.90;;;;;;5114162;28;20432;-60
2023/05/11 05:27:29;;;;;;;0.73;0.20;;;13.20;99.90;;;;;;5112067;28;20427;-59
2023/05/11 05:29:56;;;;;;;0.50;0.20;;;13.10;99.90;;;;;;5114687;28;20431;-61
2023/05/11 05:32:23;;;;;;;0.75;0.20;;;13.20;99.90;;;;;;5114705;28;20420;-63
2023/05/11 05:34:50;;;;;;;0.50;0.30;;;13.20;99.90;;;;;;5112602;28;20446;-60
2023/05/11 05:37:17;;;;;;;0.63;0.30;;;13.20;99.90;;;;;;5114708;28;20428;-60
2023/05/11 05:39:44;;;;;;;0.77;0.30;;;13.40;99.90;;;;;;5116618;28;20496;-61
2023/05/11 05:42:11;;;;;;;1.10;0.30;;;13.40;99.90;;;;;;5116443;28;20893;-59
2023/05/11 05:44:39;;;;;;;0.60;0.20;;;13.50;99.90;;;;;;5112128;28;20436;-60
2023/05/11 05:47:06;;;;;;;0.50;0.30;;;13.50;99.90;;;;;;5110535;28;20424;-60
2023/05/11 05:49:33;;;;;;;0.50;0.30;;;13.50;99.90;;;;;;5110358;28;20428;-60
2023/05/11 05:52:00;;;;;;;0.60;0.30;;;13.60;99.90;;;;;;5107606;28;20505;-60
2023/05/11 05:54:28;;;;;;;0.47;0.20;;;13.50;99.90;;;;;;5106154;28;20439;-60
2023/05/11 05:56:55;;;;;;;0.60;0.30;;;13.30;99.90;;;;;;5104320;28;20436;-60
2023/05/11 05:59:23;;;;;;;0.60;0.30;;;13.10;99.90;;;;;;5113299;28;20424;-60
2023/05/11 06:01:51;;;;;;;0.60;0.20;;;13.10;99.90;;;;;;5112479;28;20511;-60
2023/05/11 06:04:18;;;;;;;0.60;0.30;;;13.10;99.90;;;;;;5113761;28;20490;-61
2023/05/11 06:06:46;;;;;;;0.60;0.30;;;13.10;99.90;;;;;;5104150;28;20923;-60
2023/05/11 06:09:13;;;;;;;0.57;0.20;;;13.10;99.90;;;;;;5108681;28;20464;-59
2023/05/11 06:11:41;;;;;;;0.60;0.30;;;13.10;99.90;;;;;;5107368;28;20423;-60
2023/05/11 06:14:08;;;;;;;0.70;0.30;;;13.00;99.90;;;;;;5107792;28;20436;-60
2023/05/11 06:16:34;;;;;;;0.60;0.30;;;13.20;99.90;;;;;;5103048;28;20501;-60
2023/05/11 06:19:03;;;;;;;0.50;0.30;;;13.30;99.90;;;;;;5095089;28;20477;-61
2023/05/11 06:21:30;;;;;;;0.50;0.30;;;13.40;99.90;;;;;;5101665;28;20427;-61
2023/05/11 06:23:57;;;;;;;0.80;0.20;;;13.40;99.90;;;;;;5101052;28;20429;-63
2023/05/11 06:26:24;;;;;;;1.10;0.30;;;13.50;99.90;;;;;;5113455;28;20475;-63
2023/05/11 06:28:51;;;;;;;1.10;0.30;;;13.50;99.90;;;;;;5096878;28;20427;-63
2023/05/11 06:31:18;;;;;;;1.00;0.30;;;13.50;99.90;;;;;;5108121;28;20540;-63
2023/05/11 06:33:46;;;;;;;0.75;0.30;;;13.60;99.90;;;;;;5113049;28;20863;-63
2023/05/11 06:36:14;;;;;;;0.50;0.30;;;13.60;99.90;;;;;;5097789;28;20422;-63
2023/05/11 06:38:41;;;;;;;0.60;0.30;;;13.70;99.90;;;;;;5109872;28;20449;-63
2023/05/11 06:41:10;;;;;;;1.60;0.30;;;13.90;99.90;;;;;;5101002;28;20420;-64
2023/05/11 06:43:37;;;;;;;0.90;0.30;;;14.10;99.90;;;;;;5101722;28;20802;-62
2023/05/11 06:46:04;;;;;;;0.80;0.30;;;13.90;99.90;;;;;;5108662;28;20427;-62
2023/05/11 06:48:31;;;;;;;0.80;0.30;;;13.70;99.90;;;;;;5108510;28;20859;-62
2023/05/11 06:50:59;;;;;;;0.50;0.20;;;13.50;99.90;;;;;;5107933;28;20422;-62
2023/05/11 06:53:27;;;;;;;0.60;0.30;;;13.20;99.90;;;;;;5102430;28;20416;-62
2023/05/11 06:55:55;;;;;;;0.50;0.30;;;13.00;99.90;;;;;;5099071;28;20433;-63
2023/05/11 06:58:22;;;;;;;0.90;0.30;;;13.00;99.90;;;;;;5108658;28;20427;-61
2023/05/11 07:00:49;;;;;;;0.70;0.30;;;12.90;99.90;;;;;;5095771;28;20412;-62
2023/05/11 07:03:16;;;;;;;0.50;0.30;;;12.90;99.90;;;;;;5104214;28;20933;-61
2023/05/11 07:05:43;;;;;;;0.50;0.30;;;13.00;99.90;;;;;;5103164;28;20766;-61
2023/05/11 07:08:10;;;;;;;0.40;0.30;;;13.00;99.90;;;;;;5111094;28;20926;-62
2023/05/11 07:10:40;;;;;;;0.68;0.30;;;13.10;99.90;;;;;;5109565;28;20738;-60
2023/05/11 07:13:07;;;;;;;1.00;0.30;;;13.10;99.90;;;;;;5092155;28;20434;-60
2023/05/11 07:15:34;;;;;;;0.90;0.40;;;13.00;99.90;;;;;;5101776;28;20449;-60
2023/05/11 07:18:01;;;;;;;0.50;0.28;;;12.80;99.90;;;;;;5098270;28;20435;-59
2023/05/11 07:20:28;;;;;;;0.50;0.30;;;12.80;99.90;;;;;;5109347;28;20428;-59
2023/05/11 07:22:58;;;;;;;2.17;0.40;;;12.90;99.90;;;;;;5094467;28;20485;-60
2023/05/11 07:25:25;;;;;;;0.70;0.30;;;13.10;99.90;;;;;;5100323;28;20992;-60
2023/05/11 07:27:54;;;;;;;0.60;0.30;;;13.10;99.90;;;;;;5104862;28;20838;-59
2023/05/11 07:30:21;;;;;;;0.50;0.30;;;12.90;99.90;;;;;;5095450;28;20433;-61
2023/05/11 07:32:48;;;;;;;1.00;0.30;;;12.90;99.90;;;;;;5108600;28;20515;-61
2023/05/11 07:35:15;;;;;;;1.33;0.30;;;12.90;99.90;;;;;;5100320;28;20523;-61
2023/05/11 07:37:42;;;;;;;0.50;0.30;;;13.20;99.90;;;;;;5107922;28;20459;-61
2023/05/11 07:40:10;;;;;;;0.50;0.30;;;13.30;99.90;;;;;;5093993;28;20435;-60
2023/05/11 07:42:38;;;;;;;0.50;0.30;;;13.60;99.90;;;;;;5103786;28;20716;-61
2023/05/11 07:45:07;;;;;;;1.08;0.60;;;13.90;99.90;;;;;;5097769;28;20424;-62
2023/05/11 07:47:34;;;;;;;2.05;1.45;;;13.90;99.90;;;;;;5101195;28;20758;-61
2023/05/11 07:50:02;;;;;;;0.70;0.50;;;13.90;99.90;;;;;;5104792;28;20456;-61
2023/05/11 07:52:29;;;;;;;1.40;0.57;;;13.70;99.90;;;;;;5093987;28;20421;-56
2023/05/11 07:54:56;;;;;;;0.60;0.30;;;13.70;99.90;;;;;;5106233;28;20906;-54
2023/05/11 07:57:26;;;;;;;0.60;0.30;;;13.70;99.90;;;;;;5106874;28;20524;-51
2023/05/11 07:59:53;;;;;;;0.60;0.30;;;13.80;99.90;;;;;;5106180;28;20432;-55
2023/05/11 08:02:22;;;;;;;0.60;0.30;;;14.10;99.90;;;;;;5103757;28;20428;-50
2023/05/11 08:04:49;;;;;;;0.60;0.30;;;14.30;99.90;;;;;;5096331;28;20431;-53
2023/05/11 08:07:16;;;;;;;0.50;0.30;;;14.50;99.90;;;;;;5104591;28;20760;-54
2023/05/11 08:09:43;;;;;;;0.50;0.30;;;14.40;99.90;;;;;;5097540;28;20441;-54
2023/05/11 08:12:10;;;;;;;2.30;0.20;;;14.50;99.90;;;;;;5106942;28;20853;-60
2023/05/11 08:14:37;;;;;;;0.60;0.30;;;14.60;99.90;;;;;;5094012;28;20426;-61
2023/05/11 08:17:05;;;;;;;1.00;0.30;;;14.80;99.90;;;;;;5112081;28;20419;-60
2023/05/11 08:19:33;;;;;;;0.60;0.30;;;15.00;99.90;;;;;;5103301;28;20417;-61
2023/05/11 08:22:01;;;;;;;0.40;0.30;;;15.00;99.90;;;;;;5110907;28;20835;-61
2023/05/11 08:24:28;;;;;;;0.50;0.30;;;15.20;99.90;;;;;;5095764;28;20444;-60
2023/05/11 08:26:55;;;;;;;0.50;0.30;;;15.30;99.90;;;;;;5110106;28;20497;-61
2023/05/11 08:29:23;;;;;;;0.55;0.30;;;15.40;99.90;;;;;;5103213;28;20436;-61
2023/05/11 08:31:50;;;;;;;0.50;0.30;;;15.50;99.90;;;;;;5104943;28;20437;-60
2023/05/11 08:34:17;;;;;;;0.50;0.30;;;15.40;99.90;;;;;;5095468;28;20430;-60
2023/05/11 08:36:45;;;;;;;0.60;0.30;;;15.40;99.90;;;;;;5108605;28;20857;-62
2023/05/11 08:39:12;;;;;;;0.60;0.30;;;15.30;99.90;;;;;;5093783;28;20483;-60
2023/05/11 08:41:39;;;;;;;0.93;0.47;;;15.10;99.90;;;;;;5107209;28;20516;-60
2023/05/11 08:44:07;;;;;;;0.70;0.40;;;14.70;99.90;;;;;;5104165;28;20429;-60
2023/05/11 08:46:36;;;;;;;0.60;0.40;;;14.60;99.90;;;;;;5100905;28;20416;-60
2023/05/11 08:49:03;;;;;;;0.60;0.40;;;14.40;99.90;;;;;;5096319;28;20844;-60
2023/05/11 08:51:31;;;;;;;0.70;0.40;;;14.60;99.90;;;;;;5106178;28;20744;-60
2023/05/11 08:54:00;;;;;;;0.90;0.40;;;14.80;99.90;;;;;;5094504;28;20796;-60
2023/05/11 08:56:29;;;;;;;0.50;0.30;;;14.90;99.90;;;;;;5102586;28;20430;-61
2023/05/11 08:58:57;;;;;;;0.60;0.40;;;15.10;99.90;;;;;;5096486;28;20426;-61
2023/05/11 09:01:28;;;;;;;0.80;0.50;;;15.20;99.90;;;;;;5105960;28;20432;-61
2023/05/11 09:03:58;;;;;;;1.00;0.50;;;15.00;99.90;;;;;;5095347;28;20424;-60
2023/05/11 09:06:26;;;;;;;0.80;0.50;;;14.80;99.90;;;;;;5102731;28;20426;-61
2023/05/11 09:08:54;;;;;;;0.80;0.50;;;14.50;99.90;;;;;;5102129;28;21168;-61
2023/05/11 09:11:23;;;;;;;0.70;0.50;;;14.60;99.90;;;;;;5093967;28;20484;-61
2023/05/11 09:13:51;;;;;;;0.70;0.40;;;14.50;99.90;;;;;;5107615;28;20422;-61
2023/05/11 09:16:18;;;;;;;0.90;0.40;;;14.60;99.90;;;;;;5097639;28;20416;-60
2023/05/11 09:18:48;;;;;;;0.60;0.40;;;14.70;99.90;;;;;;5097948;28;20526;-62
2023/05/11 09:21:15;;;;;;;0.93;0.37;;;15.00;99.90;;;;;;5104974;28;20719;-62
2023/05/11 09:23:42;;;;;;;3.25;0.50;;;15.00;99.90;;;;;;5101477;28;20770;-63
2023/05/11 09:26:14;;;;;;;1.00;0.40;;;15.20;99.90;;;;;;5103075;28;20848;-63
2023/05/11 09:28:50;;;;;;;0.55;0.40;;;15.30;99.90;;;;;;5101176;28;20440;-61
2023/05/11 09:31:39;;;;;;;1.15;0.40;;;15.20;99.90;;;;;;5097158;28;20409;-62
2023/05/11 09:34:11;;;;;;;0.82;0.68;;;15.20;99.90;;;;;;5091671;28;20422;-61
2023/05/11 09:36:38;;;;;;;0.60;0.40;;;15.30;99.90;;;;;;5101815;28;20499;-60
2023/05/11 09:39:05;;;;;;;0.90;0.40;;;15.30;99.90;;;;;;5107028;28;20481;-61
2023/05/11 09:41:33;;;;;;;0.60;0.40;;;15.40;99.90;;;;;;5110974;28;20699;-61
2023/05/11 09:44:11;;;;;;;0.60;0.40;;;15.20;99.90;;;;;;5095921;28;20512;-62
2023/05/11 09:46:39;;;;;;;0.57;0.30;;;15.00;99.90;;;;;;5099903;28;20705;-61
2023/05/11 09:49:07;;;;;;;0.90;0.30;;;15.10;99.90;;;;;;5104270;28;20431;-61
2023/05/11 09:51:36;;;;;;;0.80;0.38;;;15.10;99.90;;;;;;5097576;28;20429;-59
2023/05/11 09:54:17;;;;;;;1.50;0.40;;;15.10;99.90;;;;;;5107772;28;20433;-61
2023/05/11 09:56:48;;;;;;;0.95;0.40;;;15.30;99.90;;;;;;5096736;28;20432;-61
2023/05/11 09:59:28;;;;;;;0.85;0.40;;;15.20;99.90;;;;;;5105607;28;20498;-60
2023/05/11 10:01:55;;;;;;;0.80;0.40;;;15.20;99.90;;;;;;5095264;28;20431;-60
2023/05/11 10:04:29;;;;;;;0.50;0.40;;;15.00;99.90;;;;;;5106777;28;20425;-62
2023/05/11 10:06:56;;;;;;;0.60;0.30;;;15.00;99.90;;;;;;5105622;28;20885;-62
2023/05/11 10:09:26;;;;;;;0.80;0.40;;;15.10;99.90;;;;;;5095371;28;20456;-61
2023/05/11 10:11:55;;;;;;;0.60;0.40;;;15.20;99.90;;;;;;5095907;28;20432;-64
2023/05/11 10:14:26;;;;;;;0.80;0.50;;;15.30;99.90;;;;;;5103868;28;20434;-61
2023/05/11 10:16:55;;;;;;;1.40;0.50;;;15.40;99.90;;;;;;5102095;28;20450;-63
2023/05/11 10:19:23;;;;;;;1.40;0.40;;;15.20;99.90;;;;;;5104831;28;20424;-65
2023/05/11 10:21:51;;;;;;;0.90;0.40;;;15.10;99.90;;;;;;5104978;28;20441;-66
2023/05/11 10:24:19;;;;;;;1.00;0.40;;;15.10;99.90;;;;;;5104777;28;20500;-65
2023/05/11 10:26:47;;;;;;;0.63;0.40;;;15.20;99.90;;;;;;5104901;28;20428;-66
2023/05/11 10:29:14;;;;;;;0.70;0.50;;;15.00;99.90;;;;;;5104057;28;20421;-63
2023/05/11 10:31:44;;;;;;;1.05;0.40;;;15.10;99.90;;;;;;5092480;28;20449;-64
2023/05/11 10:34:12;;;;;;;0.80;0.50;;;15.10;99.90;;;;;;5092185;28;20464;-64
2023/05/11 10:36:39;;;;;;;2.83;0.40;;;15.30;99.90;;;;;;5090549;28;20422;-61
2023/05/11 10:39:06;;;;;;;0.60;0.30;;;15.40;99.90;;;;;;5091515;28;20486;-64
2023/05/11 10:41:52;;;;;;;0.60;0.40;;;15.40;99.90;;;;;;5089785;28;20620;-64
2023/05/11 10:44:53;;;;;;;1.20;0.40;;;15.60;99.90;;;;;;5092575;28;20434;-64
2023/05/11 10:47:45;;;;;;;0.60;0.40;;;15.50;99.90;;;;;;5096300;28;20431;-64
2023/05/11 10:50:38;;;;;;;0.80;0.40;;;15.60;99.90;;;;;;5098682;28;20535;-64
2023/05/11 10:53:18;;;;;;;0.70;0.50;;;15.70;99.90;;;;;;5089060;28;20441;-63
2023/05/11 10:56:02;;;;;;;0.60;0.30;;;15.90;99.90;;;;;;5092804;28;20442;-64
2023/05/11 10:58:43;;;;;;;0.70;0.40;;;15.80;99.90;;;;;;5094176;28;20940;-64
2023/05/11 11:01:28;;;;;;;0.70;0.50;;;15.70;99.90;;;;;;5099832;28;20432;-64
2023/05/11 11:04:04;;;;;;;1.40;0.40;;;15.70;99.90;;;;;;5103042;28;20483;-64
2023/05/11 11:06:32;;;;;;;0.70;0.30;;;15.70;99.90;;;;;;5105740;28;20428;-62
2023/05/11 11:09:00;;;;;;;0.57;0.30;;;15.80;99.90;;;;;;5111441;28;20432;-65
2023/05/11 11:11:32;;;;;;;1.60;0.50;;;15.60;99.90;;;;;;5107887;28;20428;-64
2023/05/11 11:14:02;;;;;;;0.60;0.40;;;15.60;99.90;;;;;;5111676;28;20472;-63
2023/05/11 11:16:29;;;;;;;0.60;0.40;;;15.60;99.90;;;;;;5112345;28;20424;-63
2023/05/11 11:19:33;;;;;;;0.98;0.40;;;15.70;99.90;;;;;;5113422;28;20451;-63
2023/05/11 11:22:05;;;;;;;0.95;0.40;;;15.80;99.90;;;;;;5113366;28;20502;-61
2023/05/11 11:24:46;;;;;;;0.68;0.40;;;15.60;99.90;;;;;;5112307;28;20901;-64
2023/05/11 11:27:17;;;;;;;1.60;0.40;;;15.70;99.90;;;;;;5113804;28;20481;-64
2023/05/11 11:30:18;;;;;;;0.80;0.20;;;15.60;99.90;;;;;;5113123;28;20952;-64
2023/05/11 11:32:46;;;;;;;0.75;0.30;;;15.50;99.90;;;;;;5112530;28;20451;-64
2023/05/11 11:35:47;;;;;;;0.60;0.30;;;15.60;99.90;;;;;;5109568;28;20493;-64
2023/05/11 11:38:17;;;;;;;0.60;0.40;;;15.70;99.90;;;;;;5109140;28;20706;-64
2023/05/11 11:40:46;;;;;;;0.70;0.40;;;15.90;99.90;;;;;;5107046;28;20432;-65
2023/05/11 11:43:16;;;;;;;1.10;0.40;;;15.80;99.90;;;;;;5109361;28;20465;-61
2023/05/11 11:45:51;;;;;;;1.50;0.40;;;15.80;99.90;;;;;;5108440;28;20468;-60
2023/05/11 11:48:28;;;;;;;0.50;0.40;;;16.00;99.90;;;;;;5103114;28;20428;-60
2023/05/11 11:51:02;;;;;;;0.60;0.40;;;16.00;99.90;;;;;;5109018;28;20436;-60
2023/05/11 11:53:59;;;;;;;1.30;0.40;;;16.10;99.90;;;;;;5108972;28;20481;-59
2023/05/11 11:56:43;;;;;;;0.50;0.30;;;16.10;99.90;;;;;;5097545;28;20436;-60
2023/05/11 11:59:12;;;;;;;0.50;0.30;;;16.00;99.90;;;;;;5091685;28;20444;-61
2023/05/11 12:01:41;;;;;;;0.40;0.20;;;15.80;99.90;;;;;;5086588;28;20661;-60
2023/05/11 12:04:46;;;;;;;0.50;0.20;;;16.10;99.90;;;;;;5091955;28;20579;-60
2023/05/11 12:07:15;;;;;;;1.10;0.20;;;16.10;99.90;;;;;;5097302;28;20431;-59
2023/05/11 12:09:46;;;;;;;0.40;0.30;;;16.10;99.90;;;;;;5092437;28;21742;-59
2023/05/11 12:12:13;;;;;;;0.55;0.30;;;16.00;99.90;;;;;;5087658;28;20883;-60
2023/05/11 12:14:47;;;;;;;0.85;0.50;;;15.90;99.90;;;;;;5093625;28;20478;-60
2023/05/11 12:17:16;;;;;;;0.77;0.40;;;16.20;99.90;;;;;;5089429;28;20432;-61
2023/05/11 12:19:44;;;;;;;0.50;0.30;;;16.50;99.90;;;;;;5087098;28;20513;-60
2023/05/11 12:22:13;;;;;;;0.80;0.30;;;16.70;99.90;;;;;;5087263;28;20615;-60
2023/05/11 12:24:41;;;;;;;0.50;0.30;;;16.50;99.90;;;;;;5086965;28;20430;-60
2023/05/11 12:27:09;;;;;;;0.50;0.30;;;16.70;99.90;;;;;;5089786;28;20423;-60
2023/05/11 12:29:36;;;;;;;0.50;0.30;;;16.50;99.90;;;;;;5088793;28;20588;-60
2023/05/11 12:32:03;;;;;;;0.60;0.30;;;16.50;99.90;;;;;;5088790;28;20431;-60
2023/05/11 12:34:31;;;;;;;0.47;0.30;;;16.40;99.90;;;;;;5093301;28;20447;-61
2023/05/11 12:37:00;;;;;;;0.70;0.30;;;16.50;99.90;;;;;;5097018;28;20443;-60
2023/05/11 12:39:28;;;;;;;1.40;0.40;;;16.60;99.90;;;;;;5108322;28;20424;-60
2023/05/11 12:41:56;;;;;;;0.50;0.30;;;16.40;99.90;;;;;;5094694;28;21121;-60
2023/05/11 12:44:29;;;;;;;1.20;0.30;;;16.60;99.90;;;;;;5089497;28;20433;-60
2023/05/11 12:46:57;;;;;;;0.40;0.20;;;16.30;99.90;;;;;;5089119;28;20533;-61
2023/05/11 12:49:26;;;;;;;0.50;0.30;;;16.30;99.90;;;;;;5091417;28;20468;-60
2023/05/11 12:52:02;;;;;;;0.95;0.30;;;16.20;99.90;;;;;;5095204;28;20424;-59
2023/05/11 12:54:31;;;;;;;0.60;0.30;;;16.30;99.90;;;;;;5096040;28;20438;-59
2023/05/11 12:56:59;;;;;;;0.50;0.30;;;16.20;99.90;;;;;;5099509;28;20433;-59
2023/05/11 12:59:33;;;;;;;0.40;0.30;;;16.20;99.90;;;;;;5102130;28;20436;-60
2023/05/11 13:02:13;;;;;;;0.50;0.30;;;16.30;99.90;;;;;;5098722;28;20494;-61